Time;durP1;ratioP1;P1;durP2;ratioP2;P2;SDS_P1;SDS_P2;PMS_P1;PMS_P2;Temp;Humidity;BMP_temperature;BMP_pressure;BME280_temperature;BME280_humidity;BME280_pressure;Samples;Min_cycle;Max_cycle;Signal;HPM_P1;HPM_P2
2021/06/02 00:02:16;;;;;;;7.15;4.75;;;;;;;-145.61;100.00;68426.72;4960637;28;20307;-83
2021/06/02 00:04:45;;;;;;;14.55;5.05;;;;;;;-145.61;100.00;68426.72;4959915;28;20035;-83
2021/06/02 00:07:15;;;;;;;6.60;4.95;;;;;;;-145.61;100.00;68426.72;4960389;28;20047;-83
2021/06/02 00:09:40;;;;;;;7.90;5.50;;;;;;;-145.61;100.00;68426.72;4977779;28;20027;-83
2021/06/02 00:12:10;;;;;;;9.70;5.53;;;;;;;-145.61;100.00;68426.72;4977390;28;20057;-84
2021/06/02 00:14:37;;;;;;;11.50;5.50;;;;;;;-145.61;100.00;68426.72;4977695;28;20066;-84
2021/06/02 00:17:03;;;;;;;8.10;5.60;;;;;;;-145.61;100.00;68426.72;4960296;28;20089;-84
2021/06/02 00:19:29;;;;;;;7.68;5.65;;;;;;;-145.61;100.00;68426.72;4960486;28;20031;-84
2021/06/02 00:21:57;;;;;;;7.95;5.25;;;;;;;-145.61;100.00;68426.72;4960498;28;20467;-83
2021/06/02 00:24:23;;;;;;;7.30;5.53;;;;;;;-145.61;100.00;68426.72;4960437;28;20027;-83
2021/06/02 00:26:55;;;;;;;7.03;5.30;;;;;;;-145.61;100.00;68426.72;4960446;28;20030;-83
2021/06/02 00:29:25;;;;;;;8.70;6.10;;;;;;;-145.61;100.00;68426.72;4977527;28;20379;-83
2021/06/02 00:31:52;;;;;;;10.75;6.05;;;;;;;-145.61;100.00;68426.72;4960355;28;20109;-83
2021/06/02 00:34:19;;;;;;;7.25;4.82;;;;;;;-145.61;100.00;68426.72;4977542;28;20322;-83
2021/06/02 00:36:45;;;;;;;8.57;4.82;;;;;;;-145.61;100.00;68426.72;4960382;28;20430;-83
2021/06/02 00:39:12;;;;;;;7.80;5.07;;;;;;;-145.61;100.00;68426.72;4960231;28;20358;-84
2021/06/02 00:41:43;;;;;;;7.30;5.43;;;;;;;-145.61;100.00;68426.72;4960275;28;20118;-83
2021/06/02 00:44:14;;;;;;;11.07;5.40;;;;;;;-145.61;100.00;68426.72;4960190;28;20308;-83
2021/06/02 00:46:41;;;;;;;12.50;5.68;;;;;;;-145.61;100.00;68426.72;4960285;28;20061;-83
2021/06/02 00:49:10;;;;;;;8.68;5.43;;;;;;;-145.61;100.00;68426.72;4977400;28;20023;-83
2021/06/02 00:51:36;;;;;;;8.23;5.05;;;;;;;-145.61;100.00;68426.72;4954735;29;20027;-83
2021/06/02 00:54:05;;;;;;;8.63;5.72;;;;;;;-145.61;100.00;68426.72;4940964;29;20371;-83
2021/06/02 00:56:38;;;;;;;8.65;5.32;;;;;;;-145.61;100.00;68426.72;4941054;29;20177;-83
2021/06/02 00:59:04;;;;;;;16.08;5.32;;;;;;;-145.61;100.00;68426.72;4944356;29;20423;-83
2021/06/02 01:01:34;;;;;;;9.35;5.35;;;;;;;-145.61;100.00;68426.72;4944438;29;20054;-84
2021/06/02 01:04:01;;;;;;;10.02;5.20;;;;;;;-145.61;100.00;68426.72;4944433;29;20089;-84
2021/06/02 01:06:28;;;;;;;8.80;5.13;;;;;;;-145.61;100.00;68426.72;4944271;29;20055;-83
2021/06/02 01:08:58;;;;;;;10.52;5.15;;;;;;;-145.61;100.00;68426.72;4957887;29;20047;-84
2021/06/02 01:11:28;;;;;;;12.45;5.35;;;;;;;-145.61;100.00;68426.72;4961321;29;20458;-84
2021/06/02 01:13:59;;;;;;;44.45;6.32;;;;;;;-145.61;100.00;68426.72;4960214;29;20034;-83
2021/06/02 01:16:27;;;;;;;7.88;5.40;;;;;;;-145.61;100.00;68426.72;4960227;28;20023;-84
2021/06/02 01:18:53;;;;;;;19.67;6.15;;;;;;;-145.61;100.00;68426.72;4959917;28;20090;-84
2021/06/02 01:21:23;;;;;;;7.72;5.07;;;;;;;-145.61;100.00;68426.72;4960014;28;20122;-84
2021/06/02 01:23:56;;;;;;;7.45;5.20;;;;;;;-145.61;100.00;68426.72;4959898;29;20035;-85
2021/06/02 01:26:24;;;;;;;7.80;5.07;;;;;;;-145.61;100.00;68426.72;4959996;28;20032;-83
2021/06/02 01:28:51;;;;;;;7.32;5.28;;;;;;;-145.61;100.00;68426.72;4959802;28;20324;-84
2021/06/02 01:31:35;;;;;;;9.95;5.15;;;;;;;-145.61;100.00;68426.72;4960103;28;20027;-83
2021/06/02 01:34:09;;;;;;;13.45;5.47;;;;;;;-145.61;100.00;68426.72;4959828;28;20033;-84
2021/06/02 01:36:59;;;;;;;7.95;5.00;;;;;;;-145.61;100.00;68426.72;4959741;28;20122;-83
2021/06/02 01:39:43;;;;;;;7.70;5.60;;;;;;;-145.61;100.00;68426.72;4959675;28;20428;-83
2021/06/02 01:42:12;;;;;;;10.38;5.65;;;;;;;-145.61;100.00;68426.72;4960794;28;20034;-83
2021/06/02 01:45:08;;;;;;;8.48;5.50;;;;;;;-145.61;100.00;68426.72;4960684;29;20059;-83
2021/06/02 01:48:06;;;;;;;9.50;5.32;;;;;;;-145.61;100.00;68426.72;4959592;28;20118;-83
2021/06/02 01:50:50;;;;;;;57.83;27.38;;;;;;;-145.61;100.00;68426.72;4955635;29;20031;-83
2021/06/02 01:53:47;;;;;;;24.15;11.65;;;;;;;-145.61;100.00;68426.72;4959490;28;20031;-84
2021/06/02 01:56:44;;;;;;;13.52;8.32;;;;;;;-145.61;100.00;68426.72;4960430;29;20037;-83
2021/06/02 01:59:47;;;;;;;12.45;8.18;;;;;;;-145.61;100.00;68426.72;4959333;29;20027;-83
2021/06/02 02:02:25;;;;;;;9.43;5.75;;;;;;;-145.61;100.00;68426.72;4960577;29;20035;-83
2021/06/02 02:05:03;;;;;;;9.25;6.65;;;;;;;-145.61;100.00;68426.72;4959269;28;20027;-83
2021/06/02 02:07:44;;;;;;;10.43;5.90;;;;;;;-145.61;100.00;68426.72;4956660;28;20054;-83
2021/06/02 02:10:24;;;;;;;6.55;5.60;;;;;;;-145.61;100.00;68426.72;4942377;29;20031;-83
2021/06/02 02:12:56;;;;;;;8.15;5.63;;;;;;;-145.61;100.00;68426.72;4944279;29;20392;-83
2021/06/02 02:15:53;;;;;;;7.15;5.53;;;;;;;-145.61;100.00;68426.72;4960120;29;20329;-83
2021/06/02 02:18:42;;;;;;;8.13;5.25;;;;;;;-145.61;100.00;68426.72;4939944;29;20156;-83
2021/06/02 02:21:40;;;;;;;9.73;4.95;;;;;;;-145.61;100.00;68426.72;4942755;29;20023;-83
2021/06/02 02:24:25;;;;;;;8.40;5.38;;;;;;;-145.61;100.00;68426.72;4942905;29;20042;-83
2021/06/02 02:26:55;;;;;;;7.95;4.88;;;;;;;-145.61;100.00;68426.72;4949682;29;20039;-84
2021/06/02 02:29:55;;;;;;;8.10;5.38;;;;;;;-145.61;100.00;68426.72;4942820;29;20420;-84
2021/06/02 02:32:39;;;;;;;10.45;5.50;;;;;;;-145.61;100.00;68426.72;4942906;29;20443;-83
2021/06/02 02:35:17;;;;;;;11.10;5.70;;;;;;;-145.61;100.00;68426.72;4959755;29;20027;-83
2021/06/02 02:38:19;;;;;;;7.93;5.75;;;;;;;-145.61;100.00;68426.72;4959711;29;20034;-83
2021/06/02 02:40:45;;;;;;;10.65;5.68;;;;;;;-145.61;100.00;68426.72;4942583;29;20415;-84
2021/06/02 02:43:12;;;;;;;8.23;5.85;;;;;;;-145.61;100.00;68426.72;4942514;29;20034;-83
2021/06/02 02:46:02;;;;;;;9.00;5.40;;;;;;;-145.61;100.00;68426.72;4942623;29;20082;-84
2021/06/02 02:48:52;;;;;;;9.07;5.78;;;;;;;-145.61;100.00;68426.72;4970553;28;20057;-84
2021/06/02 02:51:40;;;;;;;12.85;6.22;;;;;;;6.77;74.31;96450.25;4942435;29;20027;-83
2021/06/02 02:54:35;;;;;;;9.35;5.80;;;;;;;6.77;74.31;96450.25;4959660;29;20115;-83
2021/06/02 02:57:27;;;;;;;9.80;5.90;;;;;;;6.77;74.31;96450.25;4937756;28;20042;-83
2021/06/02 03:00:14;;;;;;;7.43;5.85;;;;;;;6.77;74.31;96450.25;4997456;28;20485;-83
2021/06/02 03:02:57;;;;;;;7.43;5.90;;;;;;;6.77;74.31;96450.25;4942226;29;20061;-83
2021/06/02 03:05:35;;;;;;;9.40;5.93;;;;;;;-145.61;100.00;68426.72;4942290;29;20419;-83
2021/06/02 03:08:16;;;;;;;9.90;5.75;;;;;;;-145.61;100.00;68426.72;4941763;29;20179;-84
2021/06/02 03:10:51;;;;;;;9.25;6.18;;;;;;;6.77;74.31;96450.25;4942122;29;20035;-83
2021/06/02 03:13:41;;;;;;;12.70;9.27;;;;;;;6.77;74.31;96450.25;4942053;29;20031;-84
2021/06/02 03:16:14;;;;;;;11.13;8.60;;;;;;;-145.61;100.00;68426.72;4942309;29;20126;-83
2021/06/02 03:18:48;;;;;;;14.18;6.35;;;;;;;-145.61;100.00;68426.72;4959038;29;20294;-84
2021/06/02 03:21:14;;;;;;;10.85;6.50;;;;;;;-145.61;100.00;68426.72;4942273;29;20070;-83
2021/06/02 03:24:10;;;;;;;11.40;6.25;;;;;;;-145.61;100.00;68426.72;4941890;29;20055;-83
2021/06/02 03:26:46;;;;;;;11.07;6.03;;;;;;;6.77;74.31;96450.25;4970677;28;20407;-82
2021/06/02 03:29:15;;;;;;;10.15;6.10;;;;;;;-145.61;100.00;68426.72;4960635;28;20058;-83
2021/06/02 03:32:17;;;;;;;13.40;5.93;;;;;;;-145.61;100.00;68426.72;4978098;28;20387;-84
2021/06/02 03:35:14;;;;;;;8.70;5.85;;;;;;;-145.61;100.00;68426.72;4960918;28;20026;-84
2021/06/02 03:37:42;;;;;;;9.90;6.35;;;;;;;5.02;80.88;96618.88;4961021;28;20031;-83
2021/06/02 03:40:32;;;;;;;8.40;5.70;;;;;;;-145.61;100.00;68426.72;4960771;28;20026;-84
2021/06/02 03:43:13;;;;;;;9.32;5.65;;;;;;;-145.61;100.00;68426.72;4960873;28;20109;-83
2021/06/02 03:45:38;;;;;;;6.82;5.95;;;;;;;-145.61;100.00;68426.72;4978043;28;20078;-84
2021/06/02 03:48:41;;;;;;;11.88;6.35;;;;;;;-145.61;100.00;68426.72;4960722;28;20034;-84
2021/06/02 03:51:26;;;;;;;8.30;5.93;;;;;;;-145.61;100.00;68426.72;4977904;28;20065;-84
2021/06/02 03:53:58;;;;;;;10.82;5.47;;;;;;;-145.61;100.00;68426.72;4977981;28;20027;-83
2021/06/02 03:56:36;;;;;;;8.20;5.40;;;;;;;-145.61;100.00;68426.72;4960588;28;20035;-85
2021/06/02 03:59:22;;;;;;;8.65;5.82;;;;;;;-145.61;100.00;68426.72;4977793;28;20034;-84
2021/06/02 04:01:47;;;;;;;11.35;6.22;;;;;;;-145.61;100.00;68426.72;4977740;28;20038;-83
2021/06/02 04:04:21;;;;;;;7.65;4.95;;;;;;;-145.61;100.00;68426.72;4960647;28;20098;-84
2021/06/02 04:06:53;;;;;;;6.75;5.43;;;;;;;-145.61;100.00;68426.72;4977635;28;20315;-84
2021/06/02 04:09:27;;;;;;;8.43;5.75;;;;;;;-145.61;100.00;68426.72;4977759;28;20089;-84
2021/06/02 04:12:00;;;;;;;7.35;5.53;;;;;;;-145.61;100.00;68426.72;4960682;28;20038;-83
2021/06/02 04:14:25;;;;;;;10.43;5.45;;;;;;;-145.61;100.00;68426.72;4978238;28;20101;-83
2021/06/02 04:16:51;;;;;;;10.00;5.85;;;;;;;-145.61;100.00;68426.72;4960356;28;20117;-84
2021/06/02 04:19:18;;;;;;;7.75;5.43;;;;;;;-145.61;100.00;68426.72;4960436;28;20023;-82
2021/06/02 04:21:45;;;;;;;8.02;6.07;;;;;;;-145.61;100.00;68426.72;4960512;28;20334;-84
2021/06/02 04:24:13;;;;;;;7.38;5.63;;;;;;;-145.61;100.00;68426.72;4969406;28;20019;-84
2021/06/02 04:26:39;;;;;;;9.80;5.70;;;;;;;-145.61;100.00;68426.72;4958205;29;20113;-84
2021/06/02 04:29:09;;;;;;;10.98;6.30;;;;;;;-145.61;100.00;68426.72;4941406;29;20183;-86
2021/06/02 04:31:37;;;;;;;8.57;5.90;;;;;;;-145.61;100.00;68426.72;4953311;28;20430;-83
2021/06/02 04:34:03;;;;;;;12.65;8.57;;;;;;;-145.61;100.00;68426.72;4964095;28;20081;-83
2021/06/02 04:36:30;;;;;;;10.32;8.35;;;;;;;-145.61;100.00;68426.72;4982821;28;20031;-84
2021/06/02 04:38:58;;;;;;;7.80;6.55;;;;;;;-145.61;100.00;68426.72;4980230;28;20062;-84
2021/06/02 04:41:25;;;;;;;10.93;7.05;;;;;;;-145.61;100.00;68426.72;4963625;28;20026;-86
2021/06/02 04:43:54;;;;;;;11.50;7.00;;;;;;;-145.61;100.00;68426.72;4963523;28;20035;-83
2021/06/02 04:46:20;;;;;;;8.32;6.43;;;;;;;-145.61;100.00;68426.72;4981010;28;20052;-84
2021/06/02 04:48:49;;;;;;;12.20;6.75;;;;;;;-145.61;100.00;68426.72;4980838;28;20386;-86
2021/06/02 04:51:35;;;;;;;12.57;7.35;;;;;;;-145.61;100.00;68426.72;4964296;28;20462;-86
2021/06/02 04:54:19;;;;;;;13.43;7.50;;;;;;;-145.61;100.00;68426.72;4982500;28;20031;-86
2021/06/02 04:56:56;;;;;;;13.10;7.38;;;;;;;-145.61;100.00;68426.72;4981473;28;20130;-83
2021/06/02 04:59:59;;;;;;;16.48;8.27;;;;;;;-145.61;100.00;68426.72;4963591;28;20086;-84
2021/06/02 05:02:43;;;;;;;11.93;8.55;;;;;;;-145.61;100.00;68426.72;4944493;29;20035;-83
2021/06/02 05:05:20;;;;;;;10.32;7.13;;;;;;;-145.61;100.00;68426.72;4961391;29;20430;-83
2021/06/02 05:08:30;;;;;;;10.52;7.40;;;;;;;-145.61;100.00;68426.72;4946801;29;20043;-83
2021/06/02 05:11:19;;;;;;;13.40;7.60;;;;;;;-145.61;100.00;68426.72;4944328;29;20408;-84
2021/06/02 05:14:19;;;;;;;11.40;7.05;;;;;;;-145.61;100.00;68426.72;4953668;28;20335;-83
2021/06/02 05:17:09;;;;;;;13.00;7.72;;;;;;;-145.61;100.00;68426.72;4976685;28;20379;-83
2021/06/02 05:22:56;;;;;;;11.80;8.13;;;;;;;-145.61;100.00;68426.72;4984975;28;20057;-85
2021/06/02 05:26:06;;;;;;;12.88;7.57;;;;;;;-145.61;100.00;68426.72;4957104;28;20038;-83
2021/06/02 05:28:50;;;;;;;14.88;8.00;;;;;;;-145.61;100.00;68426.72;4960862;29;20031;-84
2021/06/02 05:31:32;;;;;;;12.15;7.70;;;;;;;-145.61;100.00;68426.72;4968937;28;20031;-84
2021/06/02 05:34:19;;;;;;;13.55;7.90;;;;;;;-145.61;100.00;68426.72;4971270;28;20035;-83
2021/06/02 05:37:40;;;;;;;12.77;6.78;;;;;;;-145.61;100.00;68426.72;4980123;28;20296;-83
2021/06/02 05:40:32;;;;;;;10.52;6.13;;;;;;;-145.61;100.00;68426.72;4939685;29;20040;-83
2021/06/02 05:43:16;;;;;;;10.73;6.28;;;;;;;-145.61;100.00;68426.72;4982047;28;20306;-84
2021/06/02 05:45:54;;;;;;;9.02;5.90;;;;;;;-145.61;100.00;68426.72;4970300;28;20427;-84
2021/06/02 05:48:41;;;;;;;7.97;5.72;;;;;;;-145.61;100.00;68426.72;4963239;28;20031;-84
2021/06/02 05:51:36;;;;;;;13.60;6.07;;;;;;;-145.61;100.00;68426.72;4948648;28;20104;-84
2021/06/02 05:54:22;;;;;;;10.05;6.00;;;;;;;-145.61;100.00;68426.72;4962467;28;20330;-84
2021/06/02 05:57:25;;;;;;;6.88;5.78;;;;;;;-145.61;100.00;68426.72;4962480;28;20331;-84
2021/06/02 06:00:07;;;;;;;9.13;6.65;;;;;;;-145.61;100.00;68426.72;4968539;28;20082;-83
2021/06/02 06:02:50;;;;;;;11.18;5.55;;;;;;;5.02;80.88;96618.88;4948046;28;20027;-84
2021/06/02 06:05:41;;;;;;;8.45;5.78;;;;;;;5.02;80.88;96618.88;4979946;28;20030;-83
2021/06/02 06:08:33;;;;;;;6.97;5.13;;;;;;;5.02;80.88;96618.88;4979338;28;20047;-84
2021/06/02 06:11:47;;;;;;;7.22;4.97;;;;;;;5.02;80.88;96618.88;4962309;28;20387;-84
2021/06/02 06:14:31;;;;;;;9.63;5.50;;;;;;;5.02;80.88;96618.88;4957498;28;20045;-83
2021/06/02 06:17:34;;;;;;;8.75;5.32;;;;;;;9.07;68.13;96659.75;4961909;28;20027;-83
2021/06/02 06:20:30;;;;;;;7.57;5.38;;;;;;;9.21;69.55;96655.03;4974611;28;20339;-83
2021/06/02 06:23:15;;;;;;;7.63;5.35;;;;;;;9.44;68.07;96649.16;4962435;28;20043;-83
2021/06/02 06:26:03;;;;;;;7.18;4.88;;;;;;;9.44;66.81;96658.06;4969392;28;20058;-83
2021/06/02 06:28:38;;;;;;;8.43;4.88;;;;;;;9.54;66.37;96652.69;4949146;29;20043;-84
2021/06/02 06:31:13;;;;;;;11.25;5.00;;;;;;;9.61;65.67;96644.28;4960032;28;20018;-83
2021/06/02 06:33:41;;;;;;;8.00;4.60;;;;;;;9.68;66.52;96641.31;4980624;28;20113;-82
2021/06/02 06:36:08;;;;;;;8.77;5.45;;;;;;;9.53;65.64;96616.66;4986362;28;20027;-82
2021/06/02 06:39:15;;;;;;;9.27;5.30;;;;;;;9.85;65.09;96639.88;4983560;28;20023;-83
2021/06/02 06:41:42;;;;;;;7.80;4.95;;;;;;;9.89;65.37;96623.47;4946092;28;20066;-83
2021/06/02 06:44:11;;;;;;;7.80;5.47;;;;;;;10.00;64.47;96631.19;4965026;28;20046;-83
2021/06/02 06:46:38;;;;;;;7.38;5.18;;;;;;;10.16;66.08;96628.22;4961507;28;20318;-83
2021/06/02 06:49:04;;;;;;;10.13;5.47;;;;;;;10.18;66.55;96613.03;4982322;28;20418;-83
2021/06/02 06:51:32;;;;;;;8.00;5.07;;;;;;;10.21;64.71;96603.22;4972331;28;20050;-83
2021/06/02 06:53:59;;;;;;;8.18;5.47;;;;;;;10.63;65.14;96643.47;4961321;28;20485;-83
2021/06/02 06:56:27;;;;;;;10.48;5.43;;;;;;;10.64;64.40;96620.50;4961072;28;20308;-83
2021/06/02 06:58:53;;;;;;;9.32;5.03;;;;;;;10.69;64.57;96609.81;4978470;28;20088;-83
2021/06/02 07:01:19;;;;;;;12.30;5.57;;;;;;;10.73;64.77;96587.94;4974391;28;20058;-83
2021/06/02 07:03:45;;;;;;;12.25;5.60;;;;;;;10.90;62.93;96588.38;4968840;28;20323;-82
2021/06/02 07:06:12;;;;;;;11.68;5.22;;;;;;;11.19;62.97;96618.56;4957380;28;20023;-83
2021/06/02 07:08:41;;;;;;;9.75;5.03;;;;;;;11.18;60.13;96608.13;4958955;28;20106;-82
2021/06/02 07:11:07;;;;;;;11.18;5.10;;;;;;;10.97;60.02;96582.63;4978814;28;20054;-83
2021/06/02 07:13:34;;;;;;;10.00;4.80;;;;;;;11.52;61.53;96615.94;4989030;28;20093;-83
2021/06/02 07:16:01;;;;;;;8.00;4.90;;;;;;;11.48;62.40;96600.97;4981523;28;20367;-83
2021/06/02 07:18:30;;;;;;;10.18;5.28;;;;;;;11.83;62.73;96634.00;4963130;28;20026;-83
2021/06/02 07:20:58;;;;;;;9.32;5.00;;;;;;;11.55;60.27;96581.59;4977317;28;20038;-83
2021/06/02 07:23:24;;;;;;;11.10;5.10;;;;;;;11.59;60.38;96576.00;4975421;28;20038;-83
2021/06/02 07:25:50;;;;;;;9.43;5.40;;;;;;;11.89;59.82;96612.38;4969733;28;20318;-83
2021/06/02 07:28:25;;;;;;;10.00;4.88;;;;;;;11.47;58.09;96528.75;4982775;28;20453;-83
2021/06/02 07:30:51;;;;;;;9.73;5.03;;;;;;;12.02;59.17;96591.13;4960764;28;20482;-84
2021/06/02 07:33:16;;;;;;;8.43;5.25;;;;;;;11.77;56.24;96565.81;4977778;28;20031;-83
2021/06/02 07:35:42;;;;;;;9.30;5.22;;;;;;;12.14;59.15;96611.94;4960784;28;20086;-83
2021/06/02 07:38:09;;;;;;;7.82;4.93;;;;;;;12.19;58.62;96589.53;4990857;28;20030;-83
2021/06/02 07:40:34;;;;;;;5.30;4.47;;;;;;;12.17;54.80;96586.53;4974880;28;20415;-83
2021/06/02 07:43:00;;;;;;;7.00;4.45;;;;;;;11.93;54.32;96529.34;4960820;28;20023;-83
2021/06/02 07:45:25;;;;;;;4.60;4.20;;;;;;;12.21;56.21;96548.25;4958364;28;20111;-83
2021/06/02 07:47:51;;;;;;;5.13;3.95;;;;;;;12.73;57.02;96587.69;4963490;28;20030;-84
2021/06/02 07:50:16;;;;;;;6.80;3.45;;;;;;;12.73;55.90;96584.16;4996595;28;20026;-84
2021/06/02 07:52:42;;;;;;;6.35;3.67;;;;;;;12.99;55.67;96609.69;4967354;28;20035;-83
2021/06/02 07:55:08;;;;;;;4.88;3.53;;;;;;;13.02;54.88;96600.59;4958090;28;20315;-83
2021/06/02 07:57:33;;;;;;;7.43;3.67;;;;;;;13.18;54.68;96593.94;4960473;28;20321;-84
2021/06/02 07:59:59;;;;;;;6.05;3.80;;;;;;;13.51;55.44;96626.53;4979610;28;20018;-83
2021/06/02 08:02:24;;;;;;;5.65;3.53;;;;;;;13.18;54.11;96588.50;4969839;28;20031;-83
2021/06/02 08:04:50;;;;;;;5.70;3.80;;;;;;;13.06;53.06;96571.19;4983349;28;20031;-84
2021/06/02 08:07:16;;;;;;;6.68;3.38;;;;;;;13.33;53.88;96588.53;4953341;28;20138;-84
2021/06/02 08:09:43;;;;;;;5.47;3.30;;;;;;;13.58;54.09;96615.25;4985639;28;20041;-84
2021/06/02 08:12:10;;;;;;;7.53;3.40;;;;;;;13.21;53.83;96570.44;4981633;28;20027;-84
2021/06/02 08:14:36;;;;;;;6.55;3.70;;;;;;;13.57;53.63;96619.19;4964391;28;20050;-84
2021/06/02 08:17:01;;;;;;;6.53;3.33;;;;;;;12.92;52.74;96527.53;4969885;28;20063;-84
2021/06/02 08:19:27;;;;;;;4.80;3.35;;;;;;;13.55;50.88;96601.78;4961187;28;20086;-84
2021/06/02 08:21:52;;;;;;;6.95;3.10;;;;;;;13.33;51.07;96558.53;4976313;28;20031;-83
2021/06/02 08:24:18;;;;;;;4.18;3.25;;;;;;;13.59;50.52;96577.81;4981060;28;20474;-84
2021/06/02 08:26:45;;;;;;;5.55;2.95;;;;;;;13.64;51.02;96558.03;4966903;28;20109;-83
2021/06/02 08:29:11;;;;;;;4.35;3.13;;;;;;;14.14;51.33;96599.72;4948524;28;20046;-83
2021/06/02 08:31:37;;;;;;;5.63;3.33;;;;;;;14.13;49.35;96594.75;4964206;28;20062;-83
2021/06/02 08:34:03;;;;;;;6.03;3.30;;;;;;;14.51;49.93;96612.16;4964047;28;20030;-83
2021/06/02 08:36:29;;;;;;;8.07;3.13;;;;;;;14.36;48.13;96563.75;4980627;28;20477;-84
2021/06/02 08:38:55;;;;;;;8.70;3.13;;;;;;;14.72;48.61;96605.47;4963517;28;20022;-83
2021/06/02 08:41:21;;;;;;;5.95;3.00;;;;;;;14.85;48.53;96602.38;4968564;28;20077;-84
2021/06/02 08:43:48;;;;;;;4.32;2.90;;;;;;;14.78;47.07;96565.28;4963558;28;20026;-84
2021/06/02 08:46:18;;;;;;;5.38;3.50;;;;;;;15.14;47.68;96601.47;4980735;28;20110;-83
2021/06/02 08:48:45;;;;;;;5.63;2.97;;;;;;;14.91;48.74;96556.69;4963871;28;20081;-83
2021/06/02 08:51:11;;;;;;;5.95;3.30;;;;;;;15.16;47.01;96577.09;4963217;28;20027;-84
2021/06/02 08:53:37;;;;;;;6.07;3.60;;;;;;;15.19;46.91;96557.00;4963414;28;20038;-83
2021/06/02 08:56:04;;;;;;;3.90;2.70;;;;;;;15.35;46.05;96572.06;4980332;28;20061;-84
2021/06/02 08:58:30;;;;;;;7.57;2.92;;;;;;;15.39;44.61;96550.69;4967118;28;20035;-84
2021/06/02 09:00:56;;;;;;;10.20;3.20;;;;;;;15.55;44.65;96568.47;4979281;28;20035;-82
2021/06/02 09:03:22;;;;;;;3.75;3.00;;;;;;;15.51;44.96;96552.28;4980447;28;20026;-84
2021/06/02 09:05:47;;;;;;;6.32;3.20;;;;;;;15.86;46.03;96582.19;4962682;28;20043;-83
2021/06/02 09:08:15;;;;;;;4.75;3.10;;;;;;;15.59;45.22;96541.66;4958749;28;20088;-83
2021/06/02 09:10:42;;;;;;;6.55;2.60;;;;;;;15.80;44.94;96550.53;4964491;28;20015;-83
2021/06/02 09:13:27;;;;;;;4.05;2.65;;;;;;;15.83;42.08;96539.38;4980276;28;20429;-83
2021/06/02 09:15:53;;;;;;;5.72;2.78;;;;;;;16.09;41.11;96552.22;4980469;28;20077;-84
2021/06/02 09:18:23;;;;;;;5.63;3.20;;;;;;;16.29;39.05;96590.44;4978026;28;20033;-84
2021/06/02 09:20:51;;;;;;;9.63;2.90;;;;;;;16.16;37.53;96568.94;4962696;28;20331;-84
2021/06/02 09:23:39;;;;;;;5.10;2.92;;;;;;;16.55;38.88;96581.34;4979717;28;20031;-83
2021/06/02 09:26:10;;;;;;;5.40;2.95;;;;;;;16.81;41.15;96576.50;4968383;28;20027;-84
2021/06/02 09:28:48;;;;;;;5.45;3.22;;;;;;;16.86;38.42;96581.25;4963065;28;20030;-84
2021/06/02 09:31:33;;;;;;;7.13;3.05;;;;;;;17.07;40.57;96579.06;4962929;28;20026;-84
2021/06/02 09:34:23;;;;;;;3.65;2.15;;;;;;;17.20;38.28;96559.38;4977600;28;20027;-83
2021/06/02 09:36:52;;;;;;;3.67;2.37;;;;;;;17.07;39.00;96520.69;4956070;29;20332;-84
2021/06/02 09:39:21;;;;;;;7.40;2.55;;;;;;;17.48;38.12;96573.13;4956266;28;20286;-84
2021/06/02 09:41:47;;;;;;;5.10;2.47;;;;;;;17.44;34.92;96567.88;4958220;28;20367;-84
2021/06/02 09:44:25;;;;;;;5.43;2.13;;;;;;;17.59;41.64;96533.94;4966665;28;20077;-84
2021/06/02 09:47:08;;;;;;;5.05;2.60;;;;;;;17.76;35.48;96560.19;4978837;28;20035;-84
2021/06/02 09:49:54;;;;;;;4.55;2.67;;;;;;;17.62;37.95;96530.94;4970226;28;20116;-83
2021/06/02 09:52:42;;;;;;;3.72;2.58;;;;;;;18.29;42.88;96563.09;4997668;28;20038;-82
2021/06/02 09:55:31;;;;;;;5.13;2.40;;;;;;;18.31;39.01;96530.34;4975145;28;20023;-83
2021/06/02 09:58:06;;;;;;;6.68;2.60;;;;;;;18.74;39.84;96555.44;4979632;28;20041;-83
2021/06/02 10:00:38;;;;;;;17.92;3.10;;;;;;;18.75;41.52;96542.41;4962368;28;20054;-83
2021/06/02 10:03:10;;;;;;;4.90;2.75;;;;;;;18.56;34.12;96562.25;4979681;28;20328;-83
2021/06/02 10:05:40;;;;;;;5.32;4.00;;;;;;;18.47;32.77;96556.28;4979597;28;20042;-83
2021/06/02 10:08:07;;;;;;;287.57;30.40;;;;;;;18.78;36.22;96558.66;4979612;28;20141;-83
2021/06/02 10:10:33;;;;;;;102.03;53.72;;;;;;;18.81;41.49;96519.16;4962415;28;20486;-84
2021/06/02 10:13:10;;;;;;;32.00;15.43;;;;;;;19.34;38.97;96555.59;4979900;28;20106;-84
2021/06/02 10:15:39;;;;;;;26.27;11.50;;;;;;;19.29;33.32;96552.88;4967829;28;20036;-84
2021/06/02 10:18:22;;;;;;;25.10;11.90;;;;;;;19.51;41.38;96521.69;5003820;28;20054;-84
2021/06/02 10:21:11;;;;;;;51.97;24.67;;;;;;;19.99;35.53;96545.06;4966682;28;20031;-84
2021/06/02 10:23:55;;;;;;;27.70;14.18;;;;;;;19.78;34.86;96514.47;4979289;28;20422;-84
2021/06/02 10:26:20;;;;;;;15.43;7.85;;;;;;;19.84;37.50;96504.88;4951752;29;20034;-83
2021/06/02 10:28:49;;;;;;;21.98;10.93;;;;;;;20.32;37.02;96552.97;4966242;28;20026;-84
2021/06/02 10:31:15;;;;;;;23.65;10.82;;;;;;;19.90;32.21;96485.53;4981882;28;20057;-84
2021/06/02 10:33:41;;;;;;;19.60;9.98;;;;;;;20.10;32.11;96511.88;4979294;28;20058;-82
2021/06/02 10:36:08;;;;;;;6.18;3.30;;;;;;;20.20;31.99;96502.00;4991726;28;20081;-82
2021/06/02 10:38:47;;;;;;;11.35;6.63;;;;;;;20.76;31.67;96545.47;4981662;28;20650;-83
2021/06/02 10:41:52;;;;;;;42.42;22.20;;;;;;;21.06;33.41;96542.56;4961237;28;20039;-84
2021/06/02 10:44:26;;;;;;;15.77;9.45;;;;;;;20.86;31.69;96496.16;4960105;29;20030;-85
2021/06/02 10:46:53;;;;;;;28.75;14.85;;;;;;;21.37;38.67;96541.13;4973940;28;20050;-84
2021/06/02 10:49:29;;;;;;;14.68;8.23;;;;;;;21.55;30.83;96538.84;4981080;28;20030;-83
2021/06/02 10:51:56;;;;;;;25.77;13.43;;;;;;;21.64;38.37;96536.44;4978781;28;20041;-84
2021/06/02 10:54:36;;;;;;;6.82;3.22;;;;;;;21.53;30.54;96500.69;4986680;28;20431;-83
2021/06/02 10:57:01;;;;;;;14.95;7.15;;;;;;;21.56;31.25;96543.84;4961373;28;20018;-84
2021/06/02 10:59:30;;;;;;;5.47;2.70;;;;;;;21.71;29.34;96552.38;4945116;28;20117;-85
2021/06/02 11:02:28;;;;;;;6.93;4.18;;;;;;;21.92;28.80;96541.47;4971802;28;20086;-86
2021/06/02 11:04:58;;;;;;;3.38;2.50;;;;;;;22.09;28.70;96546.72;4956868;29;20047;-85
2021/06/02 11:07:26;;;;;;;4.60;2.28;;;;;;;22.20;30.61;96543.00;4941908;29;20431;-84
2021/06/02 11:10:00;;;;;;;3.85;1.88;;;;;;;22.55;29.63;96530.03;4944969;28;20035;-84
2021/06/02 11:12:27;;;;;;;12.43;3.13;;;;;;;22.58;30.60;96504.06;4982880;28;20384;-84
2021/06/02 11:14:53;;;;;;;4.60;2.03;;;;;;;22.78;28.60;96506.16;4959865;28;20034;-84
2021/06/02 11:17:21;;;;;;;5.05;2.20;;;;;;;22.87;28.44;96533.38;4961003;28;20022;-84
2021/06/02 11:19:50;;;;;;;7.65;2.50;;;;;;;23.02;28.01;96532.09;4958409;28;20459;-84
2021/06/02 11:22:19;;;;;;;15.00;3.30;;;;;;;23.26;27.99;96523.47;4946526;28;20026;-83
2021/06/02 11:24:46;;;;;;;4.88;2.72;;;;;;;22.94;30.29;96455.22;4968463;28;20355;-84
2021/06/02 11:29:52;;;;;;;8.35;3.45;;;;;;;23.73;28.29;96536.50;4980004;28;20035;-83
2021/06/02 11:32:22;;;;;;;4.28;2.38;;;;;;;23.54;26.59;96533.91;4960800;28;20437;-84
2021/06/02 11:34:52;;;;;;;2.53;2.00;;;;;;;23.62;28.88;96522.88;4960943;28;20046;-84
2021/06/02 11:37:20;;;;;;;5.80;2.50;;;;;;;23.98;27.34;96525.78;4977931;28;20026;-83
2021/06/02 11:39:47;;;;;;;8.10;2.25;;;;;;;23.85;26.77;96484.28;4977704;28;20145;-83
2021/06/02 11:42:28;;;;;;;4.10;2.63;;;;;;;24.29;27.20;96523.97;4977491;28;20037;-84
2021/06/02 11:44:58;;;;;;;4.65;2.13;;;;;;;23.78;25.62;96483.69;4956934;28;20034;-84
2021/06/02 11:47:24;;;;;;;4.18;2.35;;;;;;;24.16;27.79;96490.75;4941495;29;20029;-84
2021/06/02 11:49:50;;;;;;;6.43;2.10;;;;;;;24.46;25.35;96518.72;4952147;28;20103;-84
2021/06/02 11:52:17;;;;;;;4.22;1.90;;;;;;;24.30;28.99;96506.75;4960535;28;20093;-83
2021/06/02 11:54:50;;;;;;;2.50;2.00;;;;;;;24.41;25.50;96514.06;4960491;28;20327;-84
2021/06/02 11:57:26;;;;;;;3.28;2.20;;;;;;;24.46;24.46;96509.66;4960686;28;20037;-83
2021/06/02 11:59:53;;;;;;;6.07;2.10;;;;;;;23.85;24.21;96504.44;4979494;28;20359;-84
2021/06/02 12:02:18;;;;;;;4.53;1.90;;;;;;;23.86;25.94;96475.41;4974476;28;20053;-83